createdAt,value
2023-02-11T07:34:48.178Z,99.90
2023-02-11T07:37:16.152Z,99.90
2023-02-11T07:39:44.012Z,99.90
2023-02-11T07:42:11.810Z,99.90
2023-02-11T07:44:39.710Z,99.90
2023-02-11T07:47:07.625Z,99.90
2023-02-11T07:49:35.549Z,99.90
2023-02-11T07:52:04.757Z,99.90
2023-02-11T07:54:32.618Z,99.90
2023-02-11T07:57:00.430Z,99.90
2023-02-11T07:59:28.392Z,99.90
2023-02-11T08:01:56.479Z,99.90
2023-02-11T08:04:24.388Z,99.90
2023-02-11T08:06:52.825Z,99.90
2023-02-11T08:09:22.051Z,99.90
2023-02-11T08:11:50.178Z,99.90
2023-02-11T08:14:18.145Z,99.90
2023-02-11T08:16:46.024Z,99.80
2023-02-11T08:19:15.703Z,99.70
2023-02-11T14:49:41.608Z,93.90
2023-02-11T14:52:20.434Z,94.50
2023-02-11T14:54:50.937Z,94.70
2023-02-11T14:57:20.308Z,94.90
2023-02-11T15:00:02.305Z,95.10
2023-02-11T15:02:34.663Z,95.20
2023-02-11T15:05:17.204Z,95.30
2023-02-11T15:07:49.024Z,95.40
2023-02-11T15:10:27.557Z,95.50
2023-02-11T15:12:56.206Z,95.60
2023-02-11T15:15:24.244Z,95.80
2023-02-11T15:17:52.803Z,96.00
2023-02-11T15:20:27.238Z,96.10
2023-02-11T15:23:00.094Z,96.20
2023-02-11T15:25:34.073Z,96.40
2023-02-11T15:28:02.203Z,96.50
2023-02-11T15:30:33.968Z,96.80
2023-02-11T15:33:03.530Z,96.80
2023-02-11T15:35:36.708Z,96.80
2023-02-11T15:38:05.260Z,96.70
2023-02-11T15:40:34.644Z,96.70
2023-02-11T15:43:04.264Z,96.80
2023-02-11T15:45:34.373Z,96.80
2023-02-11T15:48:09.167Z,96.90
2023-02-11T15:50:40.899Z,96.90
2023-02-11T15:53:23.887Z,97.30
2023-02-11T15:55:53.859Z,97.40
2023-02-11T15:58:23.644Z,97.60
2023-02-11T16:00:54.713Z,97.80
2023-02-11T16:03:24.903Z,98.00
2023-02-11T16:05:56.384Z,98.00
2023-02-11T16:08:29.306Z,98.10
2023-02-11T16:10:59.731Z,98.20
2023-02-11T16:13:30.149Z,98.30
2023-02-11T16:16:02.407Z,98.30
2023-02-11T16:18:38.426Z,98.70
2023-02-11T16:21:15.644Z,98.50
2023-02-11T16:23:50.227Z,98.60
2023-02-11T16:26:25.579Z,98.70
2023-02-11T16:28:54.097Z,98.80
2023-02-11T16:31:22.173Z,98.80
2023-02-11T16:33:50.056Z,98.90
2023-02-11T16:36:19.222Z,98.90
2023-02-11T16:38:47.037Z,99.10
2023-02-11T16:41:14.884Z,99.10
2023-02-11T16:43:42.736Z,99.20
2023-02-11T16:46:14.978Z,99.50
2023-02-11T16:48:42.700Z,99.30
2023-02-11T16:51:12.791Z,99.40
2023-02-11T16:53:41.996Z,99.40
2023-02-11T16:56:15.605Z,99.90
2023-02-11T16:58:43.668Z,99.60
2023-02-11T17:01:13.944Z,99.70
2023-02-11T17:03:43.968Z,99.80
2023-02-11T17:06:12.449Z,99.80
2023-02-11T17:08:41.887Z,99.80
2023-02-11T17:11:09.678Z,99.90
2023-02-11T17:13:39.380Z,99.90
2023-02-11T17:16:09.594Z,99.90
2023-02-11T17:18:37.489Z,99.90
2023-02-11T17:21:07.634Z,99.90
2023-02-11T17:23:35.455Z,99.90
2023-02-11T17:26:05.030Z,99.90
2023-02-11T17:28:33.495Z,99.90
2023-02-11T17:31:01.733Z,99.90
2023-02-11T17:33:29.677Z,99.90
2023-02-11T17:35:57.484Z,99.90
2023-02-11T17:38:25.326Z,99.90
2023-02-11T17:40:59.583Z,99.90
2023-02-11T17:43:29.143Z,99.90
2023-02-11T17:45:56.985Z,99.90
2023-02-11T17:48:24.871Z,99.90
2023-02-11T17:50:52.686Z,99.90
2023-02-11T17:53:20.480Z,99.90
2023-02-11T17:55:48.459Z,99.90
2023-02-11T17:58:16.694Z,99.90
2023-02-11T18:00:46.717Z,99.90
2023-02-11T18:03:14.596Z,99.90
2023-02-11T18:05:42.411Z,99.90
2023-02-11T18:08:10.229Z,99.90
2023-02-11T18:10:38.035Z,99.90
2023-02-11T18:13:05.875Z,99.90
2023-02-11T18:15:34.797Z,99.90
2023-02-11T18:18:04.038Z,99.90
2023-02-11T18:20:31.867Z,99.90
2023-02-11T18:22:59.692Z,99.90
2023-02-11T18:25:27.533Z,99.90
2023-02-11T18:27:55.351Z,99.90
2023-02-11T18:30:24.178Z,99.90
2023-02-11T18:32:54.642Z,99.90
2023-02-11T18:35:24.559Z,99.90
2023-02-11T18:37:53.083Z,99.90
2023-02-11T18:40:21.596Z,99.90
2023-02-11T18:42:49.450Z,99.90
2023-02-11T18:45:17.277Z,99.90
2023-02-11T18:47:45.117Z,99.90
2023-02-11T18:50:15.654Z,99.90
2023-02-11T18:52:44.956Z,99.90
2023-02-11T18:55:12.771Z,99.90
2023-02-11T18:57:40.611Z,99.90
2023-02-11T19:00:10.994Z,99.90
2023-02-11T19:02:38.935Z,99.90
2023-02-11T19:05:07.382Z,99.90
2023-02-11T19:07:35.231Z,99.90
2023-02-11T19:10:05.275Z,99.90
2023-02-11T19:12:33.794Z,99.90
2023-02-11T19:15:01.675Z,99.90
2023-02-11T19:17:29.484Z,99.90
2023-02-11T19:19:57.312Z,99.90
2023-02-11T19:22:25.110Z,99.90
2023-02-11T19:24:52.988Z,99.90
2023-02-11T19:27:22.179Z,99.90
2023-02-11T19:29:50.028Z,99.90
2023-02-11T19:32:17.912Z,99.90
2023-02-11T19:34:45.792Z,99.90
2023-02-11T19:37:14.106Z,99.90
2023-02-11T19:39:42.149Z,99.90
2023-02-11T19:42:10.471Z,99.90
2023-02-11T19:44:39.727Z,99.90
2023-02-11T19:47:07.799Z,99.90
2023-02-11T19:49:35.620Z,99.90
2023-02-11T19:52:03.418Z,99.90
2023-02-11T19:54:31.247Z,99.90
2023-02-11T19:56:59.713Z,99.90
2023-02-11T19:59:27.612Z,99.90
2023-02-11T20:01:57.670Z,99.90
2023-02-11T20:04:25.677Z,99.90
2023-02-11T20:06:53.528Z,99.90
2023-02-11T20:09:21.699Z,99.90
2023-02-11T20:11:50.069Z,99.90
2023-02-11T20:14:17.905Z,99.90
2023-02-11T20:16:49.485Z,99.90
2023-02-11T20:19:21.476Z,99.90
2023-02-11T20:21:51.892Z,99.90
2023-02-11T20:24:21.021Z,99.90
2023-02-11T20:26:49.818Z,99.90
2023-02-11T20:29:18.983Z,99.90
2023-02-11T20:31:47.125Z,99.90
2023-02-11T20:34:17.421Z,99.90
2023-02-11T20:36:51.698Z,99.90
2023-02-11T20:39:21.754Z,99.90
2023-02-11T20:41:50.206Z,99.90
2023-02-11T20:44:18.776Z,99.90
2023-02-11T20:46:47.494Z,99.90
2023-02-11T20:49:16.875Z,99.90
2023-02-11T20:51:46.148Z,99.90
2023-02-11T20:54:15.420Z,99.90
2023-02-11T20:56:45.529Z,99.90
2023-02-11T20:59:17.030Z,99.90
2023-02-11T21:01:47.876Z,99.90
2023-02-11T21:04:17.866Z,99.90
2023-02-11T21:06:48.325Z,99.90
2023-02-11T21:09:19.765Z,99.90
2023-02-11T21:11:47.824Z,99.90
2023-02-11T21:14:17.860Z,99.90
2023-02-11T21:16:46.000Z,99.90
2023-02-11T21:19:13.876Z,99.90
2023-02-11T21:21:41.827Z,99.90
2023-02-11T21:24:12.239Z,99.90
2023-02-11T21:26:40.648Z,99.90
2023-02-11T21:29:09.323Z,99.90
2023-02-11T21:31:37.708Z,99.90
2023-02-11T21:34:06.171Z,99.90
2023-02-11T21:36:34.281Z,99.90
2023-02-11T21:39:03.818Z,99.90
2023-02-11T21:41:33.379Z,99.90
2023-02-11T21:44:01.250Z,99.90
2023-02-11T21:46:29.382Z,99.90
2023-02-11T21:48:58.174Z,99.90
2023-02-11T21:51:27.243Z,99.90
2023-02-11T21:53:56.577Z,99.90
2023-02-11T21:56:26.313Z,99.90
2023-02-11T21:58:57.100Z,99.90
2023-02-11T22:01:27.140Z,99.90
2023-02-11T22:03:55.034Z,99.90
2023-02-11T22:06:26.104Z,99.90
2023-02-11T22:08:54.683Z,99.90
2023-02-11T22:11:22.666Z,99.90
2023-02-11T22:13:56.183Z,99.90
